Weather reports worldwide

Advertisment
Le Puy, France (7471): temperature & dewpoint: 11.10.2018 08:00:00 - 17.10.2018 08:00:00 (CEST)Le Puy, France (7471): temperature 5cm: 11.10.2018 08:00:00 - 17.10.2018 08:00:00 (CEST)Le Puy, France (7471): temperature -20cm & temperature -100cm: 11.10.2018 08:00:00 - 17.10.2018 08:00:00 (CEST)Le Puy, France (7471): wind speed & gusts: 11.10.2018 08:00:00 - 17.10.2018 08:00:00 (CEST)Le Puy, France (7471): wind direction: 11.10.2018 08:00:00 - 17.10.2018 08:00:00 (CEST)Le Puy, France (7471): visibility: 11.10.2018 08:00:00 - 17.10.2018 08:00:00 (CEST)Le Puy, France (7471): sunshine duration: 11.10.2018 08:00:00 - 17.10.2018 08:00:00 (CEST)Le Puy, France (7471): precipitation: 11.10.2018 08:00:00 - 17.10.2018 08:00:00 (CEST)
Date & Time tt [°C] td [°C] tt 5cm [°C] tt -20cm [°C] tt -100cm [°C] ff [km/h] ff [kn] fx [km/h] fx [kn] dd vv [km] sd [min] rr [mm]
17.10.2018 08:00:00 6,3 5,1 3,4 14,0 14,9 5 3 7 4 SW 7 0 0,0
17.10.2018 07:00:00 7,0 5,5 4,5 14,0 14,9 4 2 18 10 WSW 15 0 0,0
17.10.2018 06:00:00 7,6 5,9 5,2 14,1 14,9 5 3 9 5 WSW 16 0 0,0
17.10.2018 05:00:00 8,6 6,7 6,5 14,1 14,9 0 0 4 2 N 17 0 0,0
17.10.2018 04:00:00 9,2 7,0 6,9 14,2 14,9 0 0 5 3 N 20 0 0,0
17.10.2018 03:00:00 8,5 6,3 6,5 14,2 14,8 0 0 7 4 N 20 0 0,0
17.10.2018 02:00:00 9,1 6,7 6,5 14,2 14,9 6 3 8 4 SW 20 0 0,0
17.10.2018 01:00:00 10,7 7,2 8,4 14,2 14,9 4 2 10 5 W 20 0 0,0
17.10.2018 00:00:00 12,4 8,9 10,6 14,2 14,9 0 0 6 4 N 20 0 0,0
16.10.2018 23:00:00 13,4 8,7 12,2 14,2 14,9 2 1 8 5 W 20 0 0,0
16.10.2018 22:00:00 13,6 8,6 12,0 14,1 14,9 4 2 6 4 WSW 20 0 0,0
16.10.2018 21:00:00 13,6 8,2 12,2 14,1 14,9 0 0 11 6 N 20 0 0,0
16.10.2018 20:00:00 15,0 8,2 14,0 13,9 14,9 4 2 18 10 W 20 0 0,0
16.10.2018 19:00:00 15,3 8,5 14,5 13,8 14,9 6 3 11 6 SSW 20 0 0,0
16.10.2018 18:00:00 17,5 7,5 18,2 13,8 14,9 8 5 14 8 SSW 20 38 0,0
16.10.2018 17:00:00 17,8 7,5 19,4 13,6 14,9 7 4 16 8 S 20 11 0,0
16.10.2018 16:00:00 18,3 7,4 21,2 13,5 14,9 7 4 21 11 SSE 19 48 0,0
16.10.2018 15:00:00 18,1 8,4 20,8 13,5 14,9 8 4 17 9 SSE 19 7 0,0
16.10.2018 14:00:00 17,6 8,4 20,5 13,5 14,9 8 4 22 12 S 20 20 0,0
16.10.2018 13:00:00 18,0 10,1 20,6 13,4 14,9 3 2 14 7 S 19 29 0,0
16.10.2018 12:00:00 16,1 9,7 16,7 13,5 14,9 2 1 9 5 S 20 28 0,0
16.10.2018 11:00:00 13,4 9,3 15,2 13,5 14,9 3 2 10 5 N 19 0 0,0
16.10.2018 10:00:00 12,5 9,0 8,7 13,6 14,9 0 0 7 4 N 18 23 0,0
16.10.2018 09:00:00 9,1 7,5 6,7 13,6 14,9 3 2 9 5 WNW 14 8 0,0
16.10.2018 08:00:00 9,1 7,0 6,6 13,6 14,9 0 0 15 8 N 7 0 0,0
16.10.2018 07:00:00 9,5 7,1 7,8 13,7 14,9 6 3 9 5 SSW 20 0 0,0
16.10.2018 06:00:00 10,1 7,3 8,3 13,7 14,9 4 2 5 3 SW 20 0 0,0
16.10.2018 05:00:00 10,6 6,9 8,4 13,8 14,9 3 1 15 8 NNE 20 0 0,0
16.10.2018 04:00:00 10,9 7,2 7,9 13,8 14,9 5 3 11 6 SE 20 0 0,0
16.10.2018 03:00:00 12,2 7,3 10,6 13,8 14,9 4 2 24 13 SSE 20 0 0,0
16.10.2018 02:00:00 12,7 8,2 10,6 13,8 14,9 9 5 16 8 ESE 20 0 0,0
16.10.2018 01:00:00 12,4 8,1 11,6 13,9 14,9 5 3 24 13 E 20 0 0,0
16.10.2018 00:00:00 12,8 8,1 12,3 13,9 15,0 10 5 24 13 SE 20 0 0,0
15.10.2018 23:00:00 12,8 7,7 12,3 13,9 14,9 7 4 20 11 SE 20 0 0,0
15.10.2018 22:00:00 13,0 7,0 12,5 13,9 14,9 10 5 35 19 ESE 20 0 0,0
15.10.2018 21:00:00 13,5 6,6 12,9 13,9 14,9 13 7 24 13 SE 20 0 0,0
15.10.2018 20:00:00 13,5 6,4 12,8 13,9 14,9 10 5 31 17 SSE 20 0 0,0
15.10.2018 19:00:00 14,1 6,2 13,6 13,9 14,9 19 10 39 21 SE 20 0 0,0
15.10.2018 18:00:00 14,1 6,7 13,9 13,9 14,9 13 7 23 12 SSE 20 0 0,0
15.10.2018 17:00:00 14,4 6,7 14,9 13,9 14,9 12 7 33 18 SE 20 0 0,0
15.10.2018 16:00:00 13,9 7,4 13,8 13,9 14,9 9 5 43 23 ESE 20 0 0,0
15.10.2018 15:00:00 13,4 6,9 13,6 14,0 14,9 19 10 51 27 SE 20 0 0,0
15.10.2018 14:00:00 13,4 6,5 13,1 14,0 14,9 28 15 67 36 SE 20 0 0,0
15.10.2018 13:00:00 14,5 5,8 12,2 14,0 14,9 30 16 63 34 SE 20 0 0,0
15.10.2018 12:00:00 14,7 6,3 12,5 14,1 14,9 23 13 52 28 SE 20 0 0,0
15.10.2018 11:00:00 15,0 6,3 14,7 14,1 15,0 24 13 52 28 SE 20 0 0,0
15.10.2018 10:00:00 14,7 6,8 13,9 14,1 14,9 24 13 50 27 SE 20 0 0,0
15.10.2018 09:00:00 14,1 7,2 13,0 14,2 15,0 22 12 43 23 SE 20 0 0,0
15.10.2018 08:00:00 13,8 6,9 13,3 14,2 15,0 19 11 42 23 SE 20 0 0,0
15.10.2018 07:00:00 13,9 6,3 12,3 14,3 15,0 21 12 39 21 SE 20 0 0,0
15.10.2018 06:00:00 13,4 6,3 12,5 14,3 14,9 11 6 47 26 SE 20 0 0,0
15.10.2018 05:00:00 13,5 6,4 12,4 14,3 14,9 14 7 38 20 SE 20 0 0,0
15.10.2018 04:00:00 13,6 6,7 12,4 14,4 14,9 17 9 39 21 SSE 20 0 0,0
15.10.2018 03:00:00 13,4 6,9 12,1 14,4 15,0 13 7 41 22 SSE 20 0 0,0
15.10.2018 02:00:00 13,3 6,9 12,3 14,4 15,0 18 10 48 26 SSE 20 0 0,0
15.10.2018 01:00:00 13,6 7,4 12,7 14,4 15,0 18 10 48 26 SSE 20 0 0,0
15.10.2018 00:00:00 13,8 6,6 13,0 14,4 15,0 26 14 47 26 SSE 20 0 0,0
14.10.2018 23:00:00 13,8 6,6 13,1 14,4 15,0 19 10 40 22 SSE 20 0 0,0
14.10.2018 22:00:00 14,2 7,5 13,8 14,4 15,0 24 13 49 26 SSE 20 0 0,0
14.10.2018 21:00:00 14,5 8,4 14,2 14,4 15,0 24 13 42 23 SSE 20 0 0,0
14.10.2018 20:00:00 14,6 8,8 14,3 14,3 14,9 16 9 29 16 SSE 20 0 0,0
14.10.2018 19:00:00 14,5 8,7 14,3 14,3 15,0 16 8 48 26 SSE 20 0 0,0
14.10.2018 18:00:00 15,2 8,4 15,3 14,2 14,9 29 15 52 28 SSE 20 1 0,0
14.10.2018 17:00:00 16,0 8,5 16,5 14,2 14,9 36 19 71 39 SSE 20 28 0,0
14.10.2018 16:00:00 17,0 8,7 18,2 14,2 15,0 32 18 78 42 SSE 20 43 0,0
14.10.2018 15:00:00 16,6 9,0 17,4 14,1 15,0 36 20 63 34 SSE 20 10 0,0
14.10.2018 14:00:00 16,2 9,6 16,7 14,1 15,0 28 15 54 29 SSE 20 2 0,0
14.10.2018 13:00:00 17,1 9,3 18,4 14,2 15,0 27 15 72 39 SSE 20 44 0,0
14.10.2018 12:00:00 16,5 8,9 16,2 14,2 15,0 34 18 61 33 SSE 20 47 0,0
14.10.2018 11:00:00 14,6 8,8 15,4 14,3 14,9 26 14 58 32 SSE 20 8 0,0
14.10.2018 10:00:00 14,2 8,2 13,3 14,4 15,0 26 14 57 31 SSE 20 12 0,0
14.10.2018 09:00:00 13,2 7,6 11,6 14,4 15,0 22 12 49 26 SSE 20 8 0,0
14.10.2018 08:00:00 12,5 6,7 11,2 14,5 15,0 22 12 48 26 SSE 20 0 0,0
14.10.2018 07:00:00 12,5 6,5 11,3 14,5 15,0 18 10 46 25 SSE 20 0 0,0
14.10.2018 06:00:00 12,8 4,7 11,5 14,5 15,0 19 10 45 24 SSE 20 0 0,0
14.10.2018 05:00:00 12,9 5,8 11,6 14,6 15,0 22 12 42 23 SSE 20 0 0,0
14.10.2018 04:00:00 13,2 7,6 12,1 14,6 14,9 17 9 36 20 SSE 20 0 0,0
14.10.2018 03:00:00 13,5 9,0 12,1 14,7 15,0 13 7 27 15 SSE 20 0 0,0
14.10.2018 02:00:00 13,6 8,8 11,4 14,7 15,0 11 6 29 15 SE 20 0 0,0
14.10.2018 01:00:00 13,8 8,8 11,8 14,7 15,0 10 6 32 18 SE 20 0 0,0
14.10.2018 00:00:00 14,2 8,6 13,1 14,7 15,0 16 9 41 22 SSE 20 0 0,0
13.10.2018 23:00:00 14,7 9,9 13,7 14,7 15,0 16 9 42 23 SSE 20 0 0,0
13.10.2018 22:00:00 14,7 10,3 12,9 14,7 15,0 16 8 35 19 SSE 20 0 0,0
13.10.2018 21:00:00 14,3 10,1 12,1 14,6 15,0 11 6 25 13 SSE 20 0 0,0
13.10.2018 20:00:00 14,4 10,0 12,6 14,6 15,0 7 4 24 13 SSE 20 0 0,0
13.10.2018 19:00:00 15,5 9,6 14,2 14,5 15,0 12 6 34 19 SSE 20 7 0,0
13.10.2018 18:00:00 16,9 10,5 17,2 14,4 15,0 17 9 41 22 SSE 20 41 0,0
13.10.2018 17:00:00 18,1 10,0 19,8 14,3 15,0 19 11 47 25 SSE 20 53 0,0
13.10.2018 16:00:00 19,0 9,5 22,9 14,2 15,0 25 13 48 26 SSE 20 60 0,0
13.10.2018 15:00:00 19,6 9,8 24,0 14,2 15,0 23 12 48 26 SSE 20 60 0,0
13.10.2018 14:00:00 20,0 10,4 22,9 14,1 15,0 22 12 45 24 SSE 20 60 0,0
13.10.2018 13:00:00 19,1 10,4 22,0 14,2 15,0 22 12 48 26 SSE 20 60 0,0
13.10.2018 12:00:00 18,0 9,9 21,4 14,2 15,0 28 15 46 25 SSE 20 60 0,0
13.10.2018 11:00:00 17,5 10,8 19,2 14,3 15,0 19 10 46 25 SSE 20 60 0,0
13.10.2018 10:00:00 15,9 10,6 15,1 14,4 15,0 16 9 34 19 SSE 20 60 0,0
13.10.2018 09:00:00 13,0 10,4 5,5 14,5 15,0 4 2 10 5 E 20 40 0,0
13.10.2018 08:00:00 9,6 8,2 5,9 14,5 15,0 3 2 14 8 SE 20 0 0,0
13.10.2018 07:00:00 9,6 8,5 6,8 14,6 15,0 5 3 12 6 SSE 20 0 0,0
13.10.2018 06:00:00 11,0 9,6 6,9 14,7 15,0 5 3 18 10 SE 20 0 0,0
13.10.2018 05:00:00 12,7 11,1 7,4 14,8 15,0 11 6 21 12 SE 20 0 0,0
13.10.2018 04:00:00 10,6 9,7 7,3 14,9 15,0 4 2 11 6 SE 20 0 0,2
13.10.2018 03:00:00 9,7 8,9 7,1 15,0 15,0 4 2 6 4 SSW 16 0 0,0
13.10.2018 02:00:00 9,6 8,8 7,0 15,0 15,0 2 1 5 3 W 16 0 0,0
13.10.2018 01:00:00 9,8 8,9 7,4 15,0 15,0 0 0 7 4 N 18 0 0,0
13.10.2018 00:00:00 10,0 9,1 7,9 15,1 15,0 4 2 8 4 SW 15 0 0,0
12.10.2018 23:00:00 10,4 9,2 8,0 15,1 15,0 3 2 8 4 SW 19 0 0,0
12.10.2018 22:00:00 11,7 10,3 9,0 15,0 15,0 2 1 7 4 S 20 0 0,0
12.10.2018 21:00:00 13,0 11,2 10,9 15,0 15,0 4 2 13 7 S 20 0 0,0
12.10.2018 20:00:00 14,9 11,9 13,6 14,9 15,0 9 5 18 10 SSE 20 0 0,0
12.10.2018 19:00:00 16,4 12,2 16,1 14,8 15,0 13 7 26 14 SSE 20 3 0,0
12.10.2018 18:00:00 17,4 12,1 17,4 14,7 15,0 14 8 26 14 SE 20 16 0,0
12.10.2018 17:00:00 17,8 12,3 18,8 14,6 15,0 14 8 24 13 SSE 20 3 0,0
12.10.2018 16:00:00 17,8 11,4 18,6 14,5 15,0 12 7 31 17 SSE 20 11 0,0
12.10.2018 15:00:00 18,1 11,4 20,2 14,4 15,0 19 10 41 22 SSE 20 41 0,0
12.10.2018 14:00:00 18,6 12,1 20,9 14,4 15,0 26 14 43 23 SSE 20 50 0,0
12.10.2018 13:00:00 18,2 12,4 20,6 14,4 15,0 22 12 47 25 SSE 20 46 0,0
12.10.2018 12:00:00 18,7 12,9 21,6 14,4 15,0 21 12 42 23 SSE 20 60 0,0
12.10.2018 11:00:00 17,8 12,3 19,5 14,4 15,0 22 12 39 21 SSE 20 60 0,0
12.10.2018 10:00:00 16,7 12,2 13,7 14,5 15,0 18 10 38 20 SE 20 54 0,0
12.10.2018 09:00:00 13,1 11,3 11,3 14,5 15,0 0 0 11 6 N 20 19 0,0
12.10.2018 08:00:00 13,6 11,3 11,5 14,5 15,0 7 4 18 10 SE 18 0 0,0
12.10.2018 07:00:00 13,6 10,9 11,5 14,6 15,1 7 4 16 9 SSE 20 0 0,0
12.10.2018 06:00:00 14,2 11,4 12,2 14,6 15,1 4 2 19 10 SE 20 0 0,0
12.10.2018 05:00:00 14,6 11,4 13,5 14,6 15,0 7 4 27 15 S 20 0 0,0
12.10.2018 04:00:00 15,5 12,1 14,7 14,7 15,1 12 6 26 14 SE 20 0 0,0
12.10.2018 03:00:00 15,5 12,1 14,6 14,7 15,1 14 8 31 17 SE 20 0 0,0
12.10.2018 02:00:00 15,3 11,9 13,4 14,7 15,1 13 7 29 15 S 20 0 -
12.10.2018 01:00:00 14,9 11,5 12,7 14,7 15,0 9 5 19 10 SSE 20 0 0,0
12.10.2018 00:00:00 15,2 11,6 13,3 14,7 15,1 12 6 31 17 ESE 20 0 0,0
11.10.2018 23:00:00 14,9 11,5 13,3 14,7 15,0 10 6 29 15 SSE 20 0 0,0
11.10.2018 22:00:00 15,6 11,8 13,9 14,6 15,0 13 7 29 16 SSE 20 0 0,0
11.10.2018 21:00:00 15,1 11,7 12,7 14,6 15,1 8 4 19 10 SSE 20 0 0,0
11.10.2018 20:00:00 15,3 10,9 13,2 14,5 15,1 10 5 20 11 SE 20 0 0,0
11.10.2018 19:00:00 15,6 10,8 14,2 14,4 15,0 9 5 24 13 SE 15 3 0,0
11.10.2018 18:00:00 17,0 10,8 17,1 14,2 15,1 11 6 40 21 SSE 20 6 0,0
11.10.2018 17:00:00 18,2 10,8 19,0 14,1 15,1 18 10 44 24 SSE 20 46 0,0
11.10.2018 16:00:00 17,8 11,1 19,1 14,0 15,1 19 10 37 20 S 20 30 0,0
11.10.2018 15:00:00 18,6 11,4 20,7 13,9 15,1 18 10 44 24 SSE 20 48 0,0
11.10.2018 14:00:00 18,7 12,0 22,7 13,9 15,1 20 11 50 27 SSE 20 60 0,0
11.10.2018 13:00:00 18,4 11,9 19,9 13,8 15,1 19 10 39 21 SSE 20 44 0,0
11.10.2018 12:00:00 17,7 12,2 17,8 13,9 15,1 16 9 43 23 SSE 20 38 0,0
11.10.2018 11:00:00 16,2 12,2 17,1 13,9 15,1 10 6 32 17 SSE 20 14 0,0
11.10.2018 10:00:00 16,3 12,8 16,1 13,9 15,1 8 4 20 11 ESE 20 57 0,0
11.10.2018 09:00:00 13,5 12,4 9,6 13,9 15,1 6 3 11 6 ENE 20 27 0,0
11.10.2018 08:00:00 11,7 10,1 9,2 14,0 15,1 3 2 23 12 NNE 20 0 0,0

tt = temperature
td = dewpoint
tt 5cm = temperature 5cm
tt -20cm = temperature -20cm
tt -100cm = temperature -100cm
ff = wind speed
fx = gusts
dd = wind direction
vv = visibility
sd = sunshine duration
rr = precipitation

Next stations